sensor_id;sensor_type;location;lat;lon;timestamp;temperature;humidity
24158;DHT22;12316;50.904;4.200;2023-08-06T00:00:09;16.90;99.90
24158;DHT22;12316;50.904;4.200;2023-08-06T00:02:34;16.80;99.90
24158;DHT22;12316;50.904;4.200;2023-08-06T00:05:00;16.80;99.90
24158;DHT22;12316;50.904;4.200;2023-08-06T00:07:26;16.80;99.90
24158;DHT22;12316;50.904;4.200;2023-08-06T00:09:52;16.80;99.90
24158;DHT22;12316;50.904;4.200;2023-08-06T00:12:17;16.80;99.90
24158;DHT22;12316;50.904;4.200;2023-08-06T00:14:43;16.90;99.90
24158;DHT22;12316;50.904;4.200;2023-08-06T00:17:09;16.90;99.90
24158;DHT22;12316;50.904;4.200;2023-08-06T00:19:35;17.00;99.90
24158;DHT22;12316;50.904;4.200;2023-08-06T00:22:00;16.80;99.90
24158;DHT22;12316;50.904;4.200;2023-08-06T00:24:27;16.90;99.90
24158;DHT22;12316;50.904;4.200;2023-08-06T00:26:53;17.00;99.90
24158;DHT22;12316;50.904;4.200;2023-08-06T00:29:19;16.90;99.90
24158;DHT22;12316;50.904;4.200;2023-08-06T00:31:44;16.80;99.90
24158;DHT22;12316;50.904;4.200;2023-08-06T00:34:10;16.80;99.90
24158;DHT22;12316;50.904;4.200;2023-08-06T00:36:35;16.80;99.90
24158;DHT22;12316;50.904;4.200;2023-08-06T00:39:01;16.80;99.90
24158;DHT22;12316;50.904;4.200;2023-08-06T00:41:27;16.90;99.90
24158;DHT22;12316;50.904;4.200;2023-08-06T00:43:53;16.90;99.90
24158;DHT22;12316;50.904;4.200;2023-08-06T00:46:19;16.90;99.90
24158;DHT22;12316;50.904;4.200;2023-08-06T00:48:45;16.80;99.90
24158;DHT22;12316;50.904;4.200;2023-08-06T00:51:11;16.90;99.90
24158;DHT22;12316;50.904;4.200;2023-08-06T00:53:40;17.00;99.90
24158;DHT22;12316;50.904;4.200;2023-08-06T00:56:06;17.00;99.90
24158;DHT22;12316;50.904;4.200;2023-08-06T00:58:33;17.00;99.90
24158;DHT22;12316;50.904;4.200;2023-08-06T01:00:59;17.00;99.90
24158;DHT22;12316;50.904;4.200;2023-08-06T01:03:25;17.00;99.90
24158;DHT22;12316;50.904;4.200;2023-08-06T01:05:51;17.00;99.90
24158;DHT22;12316;50.904;4.200;2023-08-06T01:08:43;17.10;99.90
24158;DHT22;12316;50.904;4.200;2023-08-06T01:13:47;17.00;99.90
24158;DHT22;12316;50.904;4.200;2023-08-06T01:16:18;16.90;99.90
24158;DHT22;12316;50.904;4.200;2023-08-06T01:18:44;16.90;99.90
24158;DHT22;12316;50.904;4.200;2023-08-06T01:21:15;17.00;99.90
24158;DHT22;12316;50.904;4.200;2023-08-06T01:23:41;17.00;99.90
24158;DHT22;12316;50.904;4.200;2023-08-06T01:29:12;16.90;99.90
24158;DHT22;12316;50.904;4.200;2023-08-06T01:31:39;16.90;99.90
24158;DHT22;12316;50.904;4.200;2023-08-06T01:34:11;17.00;99.90
24158;DHT22;12316;50.904;4.200;2023-08-06T01:36:39;17.00;99.90
24158;DHT22;12316;50.904;4.200;2023-08-06T01:39:05;16.90;99.90
24158;DHT22;12316;50.904;4.200;2023-08-06T01:41:31;17.00;99.90
24158;DHT22;12316;50.904;4.200;2023-08-06T01:43:56;17.00;99.90
24158;DHT22;12316;50.904;4.200;2023-08-06T01:46:22;17.10;99.90
24158;DHT22;12316;50.904;4.200;2023-08-06T01:48:48;17.10;99.90
24158;DHT22;12316;50.904;4.200;2023-08-06T01:51:13;17.20;99.90
24158;DHT22;12316;50.904;4.200;2023-08-06T01:53:39;17.30;99.90
24158;DHT22;12316;50.904;4.200;2023-08-06T01:56:05;17.30;99.90
24158;DHT22;12316;50.904;4.200;2023-08-06T01:58:30;17.30;99.90
24158;DHT22;12316;50.904;4.200;2023-08-06T02:00:56;17.30;99.90
24158;DHT22;12316;50.904;4.200;2023-08-06T02:03:21;17.30;99.90
24158;DHT22;12316;50.904;4.200;2023-08-06T02:05:47;17.20;99.90
24158;DHT22;12316;50.904;4.200;2023-08-06T02:08:13;17.20;99.90
24158;DHT22;12316;50.904;4.200;2023-08-06T02:10:38;17.20;99.90
24158;DHT22;12316;50.904;4.200;2023-08-06T02:13:04;17.20;99.90
24158;DHT22;12316;50.904;4.200;2023-08-06T02:15:29;17.20;99.90
24158;DHT22;12316;50.904;4.200;2023-08-06T02:17:55;17.10;99.90
24158;DHT22;12316;50.904;4.200;2023-08-06T02:20:21;17.10;99.90
24158;DHT22;12316;50.904;4.200;2023-08-06T02:22:46;17.10;99.90
24158;DHT22;12316;50.904;4.200;2023-08-06T02:25:12;17.00;99.90
24158;DHT22;12316;50.904;4.200;2023-08-06T02:27:37;17.00;99.90
24158;DHT22;12316;50.904;4.200;2023-08-06T02:30:04;16.90;99.90
24158;DHT22;12316;50.904;4.200;2023-08-06T02:32:30;16.90;99.90
24158;DHT22;12316;50.904;4.200;2023-08-06T02:34:57;16.90;99.90
24158;DHT22;12316;50.904;4.200;2023-08-06T02:37:22;16.90;99.90
24158;DHT22;12316;50.904;4.200;2023-08-06T02:39:48;16.90;99.90
24158;DHT22;12316;50.904;4.200;2023-08-06T02:42:14;16.90;99.90
24158;DHT22;12316;50.904;4.200;2023-08-06T02:44:39;16.80;99.90
24158;DHT22;12316;50.904;4.200;2023-08-06T02:47:05;16.90;99.90
24158;DHT22;12316;50.904;4.200;2023-08-06T02:49:31;16.80;99.90
24158;DHT22;12316;50.904;4.200;2023-08-06T02:51:56;16.80;99.90
24158;DHT22;12316;50.904;4.200;2023-08-06T02:54:22;16.70;99.90
24158;DHT22;12316;50.904;4.200;2023-08-06T02:56:47;16.70;99.90
24158;DHT22;12316;50.904;4.200;2023-08-06T02:59:13;16.70;99.90
24158;DHT22;12316;50.904;4.200;2023-08-06T03:01:39;16.60;99.90
24158;DHT22;12316;50.904;4.200;2023-08-06T03:04:06;16.60;99.90
24158;DHT22;12316;50.904;4.200;2023-08-06T03:06:32;16.50;99.90
24158;DHT22;12316;50.904;4.200;2023-08-06T03:08:57;16.40;99.90
24158;DHT22;12316;50.904;4.200;2023-08-06T03:11:23;16.40;99.90
24158;DHT22;12316;50.904;4.200;2023-08-06T03:13:49;16.30;99.90
24158;DHT22;12316;50.904;4.200;2023-08-06T03:16:14;16.20;99.90
24158;DHT22;12316;50.904;4.200;2023-08-06T03:18:40;16.20;99.90
24158;DHT22;12316;50.904;4.200;2023-08-06T03:21:05;16.20;99.90
24158;DHT22;12316;50.904;4.200;2023-08-06T03:23:31;16.10;99.90
24158;DHT22;12316;50.904;4.200;2023-08-06T03:26:01;16.00;99.90
24158;DHT22;12316;50.904;4.200;2023-08-06T03:28:27;15.90;99.90
24158;DHT22;12316;50.904;4.200;2023-08-06T03:31:03;15.80;99.90
24158;DHT22;12316;50.904;4.200;2023-08-06T03:33:29;15.70;99.90
24158;DHT22;12316;50.904;4.200;2023-08-06T03:35:55;15.60;99.90
24158;DHT22;12316;50.904;4.200;2023-08-06T03:38:21;15.40;99.90
24158;DHT22;12316;50.904;4.200;2023-08-06T03:40:48;15.20;99.90
24158;DHT22;12316;50.904;4.200;2023-08-06T03:43:14;15.00;99.90
24158;DHT22;12316;50.904;4.200;2023-08-06T03:45:40;14.80;99.90
24158;DHT22;12316;50.904;4.200;2023-08-06T03:48:06;14.80;99.90
24158;DHT22;12316;50.904;4.200;2023-08-06T03:50:32;14.70;99.90
24158;DHT22;12316;50.904;4.200;2023-08-06T03:52:58;14.70;99.90
24158;DHT22;12316;50.904;4.200;2023-08-06T03:55:23;14.70;99.90
24158;DHT22;12316;50.904;4.200;2023-08-06T03:57:49;14.60;99.90
24158;DHT22;12316;50.904;4.200;2023-08-06T04:00:15;14.50;99.90
24158;DHT22;12316;50.904;4.200;2023-08-06T04:02:41;14.60;99.90
24158;DHT22;12316;50.904;4.200;2023-08-06T04:05:06;14.60;99.90
24158;DHT22;12316;50.904;4.200;2023-08-06T04:07:32;14.60;99.90
24158;DHT22;12316;50.904;4.200;2023-08-06T04:10:00;14.60;99.90
24158;DHT22;12316;50.904;4.200;2023-08-06T04:12:26;14.60;99.90
24158;DHT22;12316;50.904;4.200;2023-08-06T04:14:53;14.60;99.90
24158;DHT22;12316;50.904;4.200;2023-08-06T04:17:19;14.60;99.90
24158;DHT22;12316;50.904;4.200;2023-08-06T04:19:53;14.60;99.90
24158;DHT22;12316;50.904;4.200;2023-08-06T04:22:20;14.50;99.90
24158;DHT22;12316;50.904;4.200;2023-08-06T04:24:46;14.40;99.90
24158;DHT22;12316;50.904;4.200;2023-08-06T04:27:12;14.40;99.90
24158;DHT22;12316;50.904;4.200;2023-08-06T04:29:38;14.40;99.90
24158;DHT22;12316;50.904;4.200;2023-08-06T04:32:06;14.40;99.90
24158;DHT22;12316;50.904;4.200;2023-08-06T04:34:32;14.30;99.90
24158;DHT22;12316;50.904;4.200;2023-08-06T04:36:59;14.30;99.90
24158;DHT22;12316;50.904;4.200;2023-08-06T04:39:25;14.40;99.90
24158;DHT22;12316;50.904;4.200;2023-08-06T04:41:50;14.30;99.90
24158;DHT22;12316;50.904;4.200;2023-08-06T04:44:16;14.30;99.90
24158;DHT22;12316;50.904;4.200;2023-08-06T04:46:42;14.40;99.90
24158;DHT22;12316;50.904;4.200;2023-08-06T04:49:07;14.30;99.90
24158;DHT22;12316;50.904;4.200;2023-08-06T04:51:33;14.30;99.90
24158;DHT22;12316;50.904;4.200;2023-08-06T04:53:59;14.30;99.90
24158;DHT22;12316;50.904;4.200;2023-08-06T04:56:24;14.30;99.90
24158;DHT22;12316;50.904;4.200;2023-08-06T04:58:50;14.30;99.90
24158;DHT22;12316;50.904;4.200;2023-08-06T05:01:16;14.40;99.90
24158;DHT22;12316;50.904;4.200;2023-08-06T05:03:42;14.40;99.90
24158;DHT22;12316;50.904;4.200;2023-08-06T05:06:07;14.40;99.90
24158;DHT22;12316;50.904;4.200;2023-08-06T05:08:33;14.40;99.90
24158;DHT22;12316;50.904;4.200;2023-08-06T05:10:59;14.50;99.90
24158;DHT22;12316;50.904;4.200;2023-08-06T05:13:25;14.50;99.90
24158;DHT22;12316;50.904;4.200;2023-08-06T05:15:52;14.50;99.90
24158;DHT22;12316;50.904;4.200;2023-08-06T05:18:18;14.50;99.90
24158;DHT22;12316;50.904;4.200;2023-08-06T05:20:44;14.50;99.90
24158;DHT22;12316;50.904;4.200;2023-08-06T05:23:10;14.60;99.90
24158;DHT22;12316;50.904;4.200;2023-08-06T05:25:36;14.60;99.90
24158;DHT22;12316;50.904;4.200;2023-08-06T05:28:03;14.60;99.90
24158;DHT22;12316;50.904;4.200;2023-08-06T05:30:28;14.70;99.90
24158;DHT22;12316;50.904;4.200;2023-08-06T05:32:55;14.80;99.90
24158;DHT22;12316;50.904;4.200;2023-08-06T05:35:21;14.80;99.90
24158;DHT22;12316;50.904;4.200;2023-08-06T05:37:48;14.80;99.90
24158;DHT22;12316;50.904;4.200;2023-08-06T05:40:13;14.80;99.90
24158;DHT22;12316;50.904;4.200;2023-08-06T05:42:40;14.60;99.90
24158;DHT22;12316;50.904;4.200;2023-08-06T05:45:06;14.70;99.90
24158;DHT22;12316;50.904;4.200;2023-08-06T05:47:32;14.70;99.90
24158;DHT22;12316;50.904;4.200;2023-08-06T05:49:57;14.70;99.90
24158;DHT22;12316;50.904;4.200;2023-08-06T05:52:23;14.60;99.90
24158;DHT22;12316;50.904;4.200;2023-08-06T05:54:49;14.60;99.90
24158;DHT22;12316;50.904;4.200;2023-08-06T05:57:15;14.60;99.90
24158;DHT22;12316;50.904;4.200;2023-08-06T05:59:41;14.60;99.90
24158;DHT22;12316;50.904;4.200;2023-08-06T06:02:07;14.60;99.90
24158;DHT22;12316;50.904;4.200;2023-08-06T06:04:33;14.60;99.90
24158;DHT22;12316;50.904;4.200;2023-08-06T06:06:58;14.70;99.90
24158;DHT22;12316;50.904;4.200;2023-08-06T06:09:24;14.80;99.90
24158;DHT22;12316;50.904;4.200;2023-08-06T06:11:49;14.80;99.90
24158;DHT22;12316;50.904;4.200;2023-08-06T06:14:19;14.80;99.90
24158;DHT22;12316;50.904;4.200;2023-08-06T06:16:45;14.90;99.90
24158;DHT22;12316;50.904;4.200;2023-08-06T06:19:11;14.90;99.90
24158;DHT22;12316;50.904;4.200;2023-08-06T06:21:37;15.00;99.90
24158;DHT22;12316;50.904;4.200;2023-08-06T06:24:04;15.00;99.90
24158;DHT22;12316;50.904;4.200;2023-08-06T06:26:31;15.00;99.90
24158;DHT22;12316;50.904;4.200;2023-08-06T06:28:56;15.10;99.90
24158;DHT22;12316;50.904;4.200;2023-08-06T06:31:22;15.20;99.90
24158;DHT22;12316;50.904;4.200;2023-08-06T06:33:47;15.30;99.90
24158;DHT22;12316;50.904;4.200;2023-08-06T06:36:13;15.30;99.90
24158;DHT22;12316;50.904;4.200;2023-08-06T06:38:39;15.30;99.90
24158;DHT22;12316;50.904;4.200;2023-08-06T06:41:05;15.50;99.90
24158;DHT22;12316;50.904;4.200;2023-08-06T06:43:30;15.50;99.90
24158;DHT22;12316;50.904;4.200;2023-08-06T06:45:57;15.40;99.90
24158;DHT22;12316;50.904;4.200;2023-08-06T06:48:28;15.40;99.90
24158;DHT22;12316;50.904;4.200;2023-08-06T06:50:54;15.40;99.90
24158;DHT22;12316;50.904;4.200;2023-08-06T06:53:20;15.40;99.90
24158;DHT22;12316;50.904;4.200;2023-08-06T06:55:48;15.30;99.90
24158;DHT22;12316;50.904;4.200;2023-08-06T06:58:15;15.30;99.90
24158;DHT22;12316;50.904;4.200;2023-08-06T07:00:42;15.30;99.90
24158;DHT22;12316;50.904;4.200;2023-08-06T07:03:07;15.20;99.90
24158;DHT22;12316;50.904;4.200;2023-08-06T07:05:33;15.30;99.90
24158;DHT22;12316;50.904;4.200;2023-08-06T07:07:59;15.50;99.90
24158;DHT22;12316;50.904;4.200;2023-08-06T07:10:25;15.40;99.90
24158;DHT22;12316;50.904;4.200;2023-08-06T07:12:51;15.40;99.90
24158;DHT22;12316;50.904;4.200;2023-08-06T07:15:16;15.40;99.90
24158;DHT22;12316;50.904;4.200;2023-08-06T07:17:43;15.30;99.90
24158;DHT22;12316;50.904;4.200;2023-08-06T07:20:09;15.30;99.90
24158;DHT22;12316;50.904;4.200;2023-08-06T07:22:35;15.30;99.90
24158;DHT22;12316;50.904;4.200;2023-08-06T07:25:01;15.30;99.90
24158;DHT22;12316;50.904;4.200;2023-08-06T07:27:27;15.40;99.90
24158;DHT22;12316;50.904;4.200;2023-08-06T07:29:52;15.30;99.90
24158;DHT22;12316;50.904;4.200;2023-08-06T07:32:18;15.50;99.90
24158;DHT22;12316;50.904;4.200;2023-08-06T07:34:44;15.50;99.90
24158;DHT22;12316;50.904;4.200;2023-08-06T07:37:09;15.50;99.90
24158;DHT22;12316;50.904;4.200;2023-08-06T07:39:35;15.70;99.90
24158;DHT22;12316;50.904;4.200;2023-08-06T07:42:03;15.80;99.90
24158;DHT22;12316;50.904;4.200;2023-08-06T07:44:31;15.90;99.90
24158;DHT22;12316;50.904;4.200;2023-08-06T07:46:56;16.00;99.90
24158;DHT22;12316;50.904;4.200;2023-08-06T07:49:22;16.10;99.90
24158;DHT22;12316;50.904;4.200;2023-08-06T07:51:48;16.10;99.90
24158;DHT22;12316;50.904;4.200;2023-08-06T07:54:13;16.20;99.90
24158;DHT22;12316;50.904;4.200;2023-08-06T07:56:39;16.20;99.90
24158;DHT22;12316;50.904;4.200;2023-08-06T07:59:05;16.30;99.90
24158;DHT22;12316;50.904;4.200;2023-08-06T08:01:31;16.30;99.90
24158;DHT22;12316;50.904;4.200;2023-08-06T08:03:56;16.30;99.90
24158;DHT22;12316;50.904;4.200;2023-08-06T08:06:22;16.30;99.90
24158;DHT22;12316;50.904;4.200;2023-08-06T08:08:48;16.20;99.90
24158;DHT22;12316;50.904;4.200;2023-08-06T08:11:14;15.80;99.90
24158;DHT22;12316;50.904;4.200;2023-08-06T08:13:41;15.60;99.90
24158;DHT22;12316;50.904;4.200;2023-08-06T08:16:07;15.40;99.90
24158;DHT22;12316;50.904;4.200;2023-08-06T08:18:32;15.40;99.90
24158;DHT22;12316;50.904;4.200;2023-08-06T08:20:58;15.40;99.90
24158;DHT22;12316;50.904;4.200;2023-08-06T08:23:24;15.40;99.90
24158;DHT22;12316;50.904;4.200;2023-08-06T08:25:49;15.30;99.90
24158;DHT22;12316;50.904;4.200;2023-08-06T08:28:15;15.30;99.90
24158;DHT22;12316;50.904;4.200;2023-08-06T08:30:41;15.30;99.90
24158;DHT22;12316;50.904;4.200;2023-08-06T08:33:07;15.50;99.90
24158;DHT22;12316;50.904;4.200;2023-08-06T08:35:33;15.60;99.90
24158;DHT22;12316;50.904;4.200;2023-08-06T08:37:59;15.60;99.90
24158;DHT22;12316;50.904;4.200;2023-08-06T08:40:31;15.90;99.90
24158;DHT22;12316;50.904;4.200;2023-08-06T08:42:57;15.90;99.90
24158;DHT22;12316;50.904;4.200;2023-08-06T08:45:26;15.90;99.90
24158;DHT22;12316;50.904;4.200;2023-08-06T08:47:54;15.90;99.90
24158;DHT22;12316;50.904;4.200;2023-08-06T08:50:19;16.00;99.90
24158;DHT22;12316;50.904;4.200;2023-08-06T08:52:46;16.00;99.90
24158;DHT22;12316;50.904;4.200;2023-08-06T08:55:15;16.10;99.90
24158;DHT22;12316;50.904;4.200;2023-08-06T08:57:41;16.10;99.90
24158;DHT22;12316;50.904;4.200;2023-08-06T09:00:07;16.00;99.90
24158;DHT22;12316;50.904;4.200;2023-08-06T09:02:33;15.80;99.90
24158;DHT22;12316;50.904;4.200;2023-08-06T09:05:00;15.70;99.90
24158;DHT22;12316;50.904;4.200;2023-08-06T09:07:29;15.70;99.90
24158;DHT22;12316;50.904;4.200;2023-08-06T09:09:58;15.70;99.90
24158;DHT22;12316;50.904;4.200;2023-08-06T09:12:24;15.70;99.90
24158;DHT22;12316;50.904;4.200;2023-08-06T09:14:51;15.70;99.90
24158;DHT22;12316;50.904;4.200;2023-08-06T09:17:17;15.70;99.90
24158;DHT22;12316;50.904;4.200;2023-08-06T09:19:46;15.50;99.90
24158;DHT22;12316;50.904;4.200;2023-08-06T09:22:13;15.40;99.90
24158;DHT22;12316;50.904;4.200;2023-08-06T09:24:43;15.40;99.90
24158;DHT22;12316;50.904;4.200;2023-08-06T09:27:15;15.40;99.90
24158;DHT22;12316;50.904;4.200;2023-08-06T09:29:44;15.40;99.90
24158;DHT22;12316;50.904;4.200;2023-08-06T09:32:12;15.30;99.90
24158;DHT22;12316;50.904;4.200;2023-08-06T09:34:43;15.20;99.90
24158;DHT22;12316;50.904;4.200;2023-08-06T09:37:09;15.20;99.90
24158;DHT22;12316;50.904;4.200;2023-08-06T09:39:40;15.20;99.90
24158;DHT22;12316;50.904;4.200;2023-08-06T09:42:07;15.10;99.90
24158;DHT22;12316;50.904;4.200;2023-08-06T09:44:33;15.10;99.90
24158;DHT22;12316;50.904;4.200;2023-08-06T09:47:02;15.10;99.90
24158;DHT22;12316;50.904;4.200;2023-08-06T09:49:40;15.20;99.90
24158;DHT22;12316;50.904;4.200;2023-08-06T09:52:12;15.30;99.90
24158;DHT22;12316;50.904;4.200;2023-08-06T09:54:39;15.20;99.90
24158;DHT22;12316;50.904;4.200;2023-08-06T09:57:08;15.30;99.90
24158;DHT22;12316;50.904;4.200;2023-08-06T09:59:35;15.30;99.90
24158;DHT22;12316;50.904;4.200;2023-08-06T10:02:03;15.40;99.90
24158;DHT22;12316;50.904;4.200;2023-08-06T10:04:32;15.50;99.90
24158;DHT22;12316;50.904;4.200;2023-08-06T10:06:59;15.60;99.90
24158;DHT22;12316;50.904;4.200;2023-08-06T10:09:26;15.60;99.90
24158;DHT22;12316;50.904;4.200;2023-08-06T10:11:51;15.60;99.90
24158;DHT22;12316;50.904;4.200;2023-08-06T10:14:25;15.70;99.90
24158;DHT22;12316;50.904;4.200;2023-08-06T10:16:52;15.70;99.90
24158;DHT22;12316;50.904;4.200;2023-08-06T10:19:19;15.70;99.90
24158;DHT22;12316;50.904;4.200;2023-08-06T10:22:14;15.50;99.90
24158;DHT22;12316;50.904;4.200;2023-08-06T10:24:56;15.30;99.90
24158;DHT22;12316;50.904;4.200;2023-08-06T10:29:49;15.10;99.90
24158;DHT22;12316;50.904;4.200;2023-08-06T10:32:17;15.00;99.90
24158;DHT22;12316;50.904;4.200;2023-08-06T10:34:56;14.90;99.90
24158;DHT22;12316;50.904;4.200;2023-08-06T10:37:23;14.90;99.90
24158;DHT22;12316;50.904;4.200;2023-08-06T10:39:52;14.80;99.90
24158;DHT22;12316;50.904;4.200;2023-08-06T10:42:27;14.90;99.90
24158;DHT22;12316;50.904;4.200;2023-08-06T10:45:17;15.10;99.90
24158;DHT22;12316;50.904;4.200;2023-08-06T10:47:44;15.10;99.90
24158;DHT22;12316;50.904;4.200;2023-08-06T10:50:17;15.10;99.90
24158;DHT22;12316;50.904;4.200;2023-08-06T10:52:46;15.40;99.90
24158;DHT22;12316;50.904;4.200;2023-08-06T10:58:07;15.90;99.90
24158;DHT22;12316;50.904;4.200;2023-08-06T11:00:33;16.00;99.90
24158;DHT22;12316;50.904;4.200;2023-08-06T11:02:59;16.00;99.90
24158;DHT22;12316;50.904;4.200;2023-08-06T11:05:25;15.90;99.90
24158;DHT22;12316;50.904;4.200;2023-08-06T11:07:52;15.70;99.90
24158;DHT22;12316;50.904;4.200;2023-08-06T11:10:18;15.60;99.90
24158;DHT22;12316;50.904;4.200;2023-08-06T11:12:44;15.70;99.90
24158;DHT22;12316;50.904;4.200;2023-08-06T11:15:10;15.70;99.90
24158;DHT22;12316;50.904;4.200;2023-08-06T11:17:37;15.90;99.90
24158;DHT22;12316;50.904;4.200;2023-08-06T11:20:05;16.00;99.90
24158;DHT22;12316;50.904;4.200;2023-08-06T11:22:31;15.90;99.90
24158;DHT22;12316;50.904;4.200;2023-08-06T11:24:57;15.90;99.90
24158;DHT22;12316;50.904;4.200;2023-08-06T11:27:23;16.00;99.90
24158;DHT22;12316;50.904;4.200;2023-08-06T11:29:51;15.80;99.90
24158;DHT22;12316;50.904;4.200;2023-08-06T11:32:17;15.50;99.90
24158;DHT22;12316;50.904;4.200;2023-08-06T11:34:43;15.30;99.90
24158;DHT22;12316;50.904;4.200;2023-08-06T11:37:09;15.10;99.90
24158;DHT22;12316;50.904;4.200;2023-08-06T11:39:37;15.00;99.90
24158;DHT22;12316;50.904;4.200;2023-08-06T11:42:05;14.90;99.90
24158;DHT22;12316;50.904;4.200;2023-08-06T11:44:32;14.90;99.90
24158;DHT22;12316;50.904;4.200;2023-08-06T11:47:02;15.00;99.90
24158;DHT22;12316;50.904;4.200;2023-08-06T11:52:17;15.10;99.90
24158;DHT22;12316;50.904;4.200;2023-08-06T11:54:44;14.90;99.90
24158;DHT22;12316;50.904;4.200;2023-08-06T11:57:11;14.90;99.90
24158;DHT22;12316;50.904;4.200;2023-08-06T11:59:37;15.00;99.90
24158;DHT22;12316;50.904;4.200;2023-08-06T12:02:05;15.00;99.90
24158;DHT22;12316;50.904;4.200;2023-08-06T12:04:31;15.20;99.90
24158;DHT22;12316;50.904;4.200;2023-08-06T12:07:05;15.30;99.90
24158;DHT22;12316;50.904;4.200;2023-08-06T12:09:33;15.40;99.90
24158;DHT22;12316;50.904;4.200;2023-08-06T12:11:59;15.70;99.90
24158;DHT22;12316;50.904;4.200;2023-08-06T12:14:24;15.70;99.90
24158;DHT22;12316;50.904;4.200;2023-08-06T12:16:50;15.70;99.90
24158;DHT22;12316;50.904;4.200;2023-08-06T12:19:16;15.90;99.90
24158;DHT22;12316;50.904;4.200;2023-08-06T12:21:41;16.00;99.90
24158;DHT22;12316;50.904;4.200;2023-08-06T12:24:07;16.20;99.90
24158;DHT22;12316;50.904;4.200;2023-08-06T12:26:33;16.30;99.90
24158;DHT22;12316;50.904;4.200;2023-08-06T12:28:58;16.20;99.90
24158;DHT22;12316;50.904;4.200;2023-08-06T12:31:24;15.90;99.90
24158;DHT22;12316;50.904;4.200;2023-08-06T12:33:49;15.60;99.90
24158;DHT22;12316;50.904;4.200;2023-08-06T12:36:15;15.50;99.90
24158;DHT22;12316;50.904;4.200;2023-08-06T12:38:41;15.40;99.90
24158;DHT22;12316;50.904;4.200;2023-08-06T12:41:06;15.50;99.90
24158;DHT22;12316;50.904;4.200;2023-08-06T12:43:32;15.70;99.90
24158;DHT22;12316;50.904;4.200;2023-08-06T12:45:57;15.90;99.90
24158;DHT22;12316;50.904;4.200;2023-08-06T12:48:23;16.00;99.90
24158;DHT22;12316;50.904;4.200;2023-08-06T12:50:49;16.00;99.90
24158;DHT22;12316;50.904;4.200;2023-08-06T12:53:15;15.80;99.90
24158;DHT22;12316;50.904;4.200;2023-08-06T12:55:41;16.00;99.90
24158;DHT22;12316;50.904;4.200;2023-08-06T12:58:07;16.20;99.90
24158;DHT22;12316;50.904;4.200;2023-08-06T13:00:32;16.10;99.90
24158;DHT22;12316;50.904;4.200;2023-08-06T13:02:59;16.00;99.90
24158;DHT22;12316;50.904;4.200;2023-08-06T13:05:25;15.90;99.90
24158;DHT22;12316;50.904;4.200;2023-08-06T13:07:50;15.80;99.90
24158;DHT22;12316;50.904;4.200;2023-08-06T13:10:16;15.60;99.90
24158;DHT22;12316;50.904;4.200;2023-08-06T13:12:41;15.60;99.90
24158;DHT22;12316;50.904;4.200;2023-08-06T13:15:08;15.60;99.90
24158;DHT22;12316;50.904;4.200;2023-08-06T13:17:33;15.40;99.90
24158;DHT22;12316;50.904;4.200;2023-08-06T13:19:59;15.30;99.90
24158;DHT22;12316;50.904;4.200;2023-08-06T13:22:25;15.30;99.90
24158;DHT22;12316;50.904;4.200;2023-08-06T13:24:50;15.30;99.90
24158;DHT22;12316;50.904;4.200;2023-08-06T13:27:16;15.30;99.90
24158;DHT22;12316;50.904;4.200;2023-08-06T13:29:41;15.30;99.90
24158;DHT22;12316;50.904;4.200;2023-08-06T13:32:07;15.20;99.90
24158;DHT22;12316;50.904;4.200;2023-08-06T13:34:33;15.20;99.90
24158;DHT22;12316;50.904;4.200;2023-08-06T13:36:58;15.00;99.90
24158;DHT22;12316;50.904;4.200;2023-08-06T13:39:24;15.00;99.90
24158;DHT22;12316;50.904;4.200;2023-08-06T13:41:50;14.90;99.90
24158;DHT22;12316;50.904;4.200;2023-08-06T13:44:15;14.90;99.90
24158;DHT22;12316;50.904;4.200;2023-08-06T13:46:41;15.00;99.90
24158;DHT22;12316;50.904;4.200;2023-08-06T13:49:07;14.90;99.90
24158;DHT22;12316;50.904;4.200;2023-08-06T13:51:33;14.80;99.90
24158;DHT22;12316;50.904;4.200;2023-08-06T13:54:00;14.70;99.90
24158;DHT22;12316;50.904;4.200;2023-08-06T13:56:26;14.70;99.90
24158;DHT22;12316;50.904;4.200;2023-08-06T13:58:52;14.60;99.90
24158;DHT22;12316;50.904;4.200;2023-08-06T14:01:18;14.70;99.90
24158;DHT22;12316;50.904;4.200;2023-08-06T14:03:46;14.80;99.90
24158;DHT22;12316;50.904;4.200;2023-08-06T14:06:12;14.80;99.90
24158;DHT22;12316;50.904;4.200;2023-08-06T14:08:37;14.70;99.90
24158;DHT22;12316;50.904;4.200;2023-08-06T14:11:03;14.50;99.90
24158;DHT22;12316;50.904;4.200;2023-08-06T14:13:30;14.50;99.90
24158;DHT22;12316;50.904;4.200;2023-08-06T14:15:56;14.50;99.90
24158;DHT22;12316;50.904;4.200;2023-08-06T14:18:22;14.40;99.90
24158;DHT22;12316;50.904;4.200;2023-08-06T14:20:47;14.40;99.90
24158;DHT22;12316;50.904;4.200;2023-08-06T14:23:13;14.30;99.90
24158;DHT22;12316;50.904;4.200;2023-08-06T14:25:39;14.40;99.90
24158;DHT22;12316;50.904;4.200;2023-08-06T14:28:05;14.50;99.90
24158;DHT22;12316;50.904;4.200;2023-08-06T14:30:32;14.50;99.90
24158;DHT22;12316;50.904;4.200;2023-08-06T14:32:58;14.70;99.90
24158;DHT22;12316;50.904;4.200;2023-08-06T14:35:26;14.70;99.90
24158;DHT22;12316;50.904;4.200;2023-08-06T14:37:51;14.70;99.90
24158;DHT22;12316;50.904;4.200;2023-08-06T14:40:17;14.70;99.90
24158;DHT22;12316;50.904;4.200;2023-08-06T14:42:43;14.80;99.90
24158;DHT22;12316;50.904;4.200;2023-08-06T14:45:09;14.60;99.90
24158;DHT22;12316;50.904;4.200;2023-08-06T14:47:34;14.70;99.90
24158;DHT22;12316;50.904;4.200;2023-08-06T14:50:00;14.80;99.90
24158;DHT22;12316;50.904;4.200;2023-08-06T14:52:26;14.80;99.90
24158;DHT22;12316;50.904;4.200;2023-08-06T14:54:51;14.90;99.90
24158;DHT22;12316;50.904;4.200;2023-08-06T14:57:20;15.00;99.90
24158;DHT22;12316;50.904;4.200;2023-08-06T14:59:47;15.10;99.90
24158;DHT22;12316;50.904;4.200;2023-08-06T15:02:13;15.30;99.90
24158;DHT22;12316;50.904;4.200;2023-08-06T15:04:39;15.40;99.90
24158;DHT22;12316;50.904;4.200;2023-08-06T15:07:04;15.50;99.90
24158;DHT22;12316;50.904;4.200;2023-08-06T15:09:30;15.80;99.90
24158;DHT22;12316;50.904;4.200;2023-08-06T15:11:55;15.90;99.90
24158;DHT22;12316;50.904;4.200;2023-08-06T15:14:21;16.00;99.90
24158;DHT22;12316;50.904;4.200;2023-08-06T15:16:47;15.90;99.90
24158;DHT22;12316;50.904;4.200;2023-08-06T15:19:13;15.70;99.90
24158;DHT22;12316;50.904;4.200;2023-08-06T15:21:38;15.30;99.90
24158;DHT22;12316;50.904;4.200;2023-08-06T15:24:04;15.10;99.90
24158;DHT22;12316;50.904;4.200;2023-08-06T15:26:30;15.20;99.90
24158;DHT22;12316;50.904;4.200;2023-08-06T15:28:55;15.30;99.90
24158;DHT22;12316;50.904;4.200;2023-08-06T15:31:22;15.50;99.90
24158;DHT22;12316;50.904;4.200;2023-08-06T15:33:48;15.90;99.90
24158;DHT22;12316;50.904;4.200;2023-08-06T15:36:14;16.20;99.90
24158;DHT22;12316;50.904;4.200;2023-08-06T15:38:40;16.60;99.90